sensor_id;sensor_type;location;lat;lon;timestamp;P1;durP1;ratioP1;P2;durP2;ratioP2
25657;SDS011;13517;59.320;18.042;2023-07-02T00:00:34;4.93;;;3.80;;
25657;SDS011;13517;59.320;18.042;2023-07-02T00:03:03;4.45;;;4.00;;
25657;SDS011;13517;59.320;18.042;2023-07-02T00:05:29;8.40;;;4.25;;
25657;SDS011;13517;59.320;18.042;2023-07-02T00:07:54;4.63;;;3.67;;
25657;SDS011;13517;59.320;18.042;2023-07-02T00:10:19;4.97;;;4.13;;
25657;SDS011;13517;59.320;18.042;2023-07-02T00:12:45;5.55;;;3.90;;
25657;SDS011;13517;59.320;18.042;2023-07-02T00:15:10;7.25;;;4.30;;
25657;SDS011;13517;59.320;18.042;2023-07-02T00:17:36;5.32;;;4.72;;
25657;SDS011;13517;59.320;18.042;2023-07-02T00:20:06;9.50;;;4.05;;
25657;SDS011;13517;59.320;18.042;2023-07-02T00:22:39;6.35;;;4.05;;
25657;SDS011;13517;59.320;18.042;2023-07-02T00:25:10;5.38;;;3.80;;
25657;SDS011;13517;59.320;18.042;2023-07-02T00:27:36;5.25;;;3.90;;
25657;SDS011;13517;59.320;18.042;2023-07-02T00:30:03;8.60;;;4.13;;
25657;SDS011;13517;59.320;18.042;2023-07-02T00:32:29;6.35;;;4.32;;
25657;SDS011;13517;59.320;18.042;2023-07-02T00:34:54;5.82;;;4.18;;
25657;SDS011;13517;59.320;18.042;2023-07-02T00:37:20;5.20;;;4.07;;
25657;SDS011;13517;59.320;18.042;2023-07-02T00:39:45;8.63;;;4.30;;
25657;SDS011;13517;59.320;18.042;2023-07-02T00:42:11;3.97;;;3.67;;
25657;SDS011;13517;59.320;18.042;2023-07-02T00:44:36;7.35;;;4.22;;
25657;SDS011;13517;59.320;18.042;2023-07-02T00:47:06;7.47;;;4.43;;
25657;SDS011;13517;59.320;18.042;2023-07-02T00:49:33;5.25;;;4.03;;
25657;SDS011;13517;59.320;18.042;2023-07-02T00:51:58;4.70;;;4.07;;
25657;SDS011;13517;59.320;18.042;2023-07-02T00:54:24;4.72;;;4.22;;
25657;SDS011;13517;59.320;18.042;2023-07-02T00:56:53;6.75;;;4.32;;
25657;SDS011;13517;59.320;18.042;2023-07-02T00:59:18;5.22;;;4.65;;
25657;SDS011;13517;59.320;18.042;2023-07-02T01:01:44;5.15;;;4.18;;
25657;SDS011;13517;59.320;18.042;2023-07-02T01:04:16;6.70;;;3.78;;
25657;SDS011;13517;59.320;18.042;2023-07-02T01:06:42;4.35;;;3.95;;
25657;SDS011;13517;59.320;18.042;2023-07-02T01:09:09;9.57;;;4.68;;
25657;SDS011;13517;59.320;18.042;2023-07-02T01:14:11;6.10;;;4.25;;
25657;SDS011;13517;59.320;18.042;2023-07-02T01:16:37;6.45;;;5.05;;
25657;SDS011;13517;59.320;18.042;2023-07-02T01:19:11;5.53;;;4.47;;
25657;SDS011;13517;59.320;18.042;2023-07-02T01:21:47;7.10;;;4.68;;
25657;SDS011;13517;59.320;18.042;2023-07-02T01:24:14;6.25;;;5.10;;
25657;SDS011;13517;59.320;18.042;2023-07-02T01:26:40;5.93;;;4.50;;
25657;SDS011;13517;59.320;18.042;2023-07-02T01:29:19;7.53;;;4.50;;
25657;SDS011;13517;59.320;18.042;2023-07-02T01:31:45;10.18;;;4.82;;
25657;SDS011;13517;59.320;18.042;2023-07-02T01:34:11;6.70;;;4.50;;
25657;SDS011;13517;59.320;18.042;2023-07-02T01:36:38;6.38;;;3.85;;
25657;SDS011;13517;59.320;18.042;2023-07-02T01:39:03;7.10;;;4.47;;
25657;SDS011;13517;59.320;18.042;2023-07-02T01:41:29;4.97;;;3.90;;
25657;SDS011;13517;59.320;18.042;2023-07-02T01:43:54;7.55;;;4.50;;
25657;SDS011;13517;59.320;18.042;2023-07-02T01:46:20;4.85;;;4.25;;
25657;SDS011;13517;59.320;18.042;2023-07-02T01:48:46;9.73;;;4.80;;
25657;SDS011;13517;59.320;18.042;2023-07-02T01:51:11;6.07;;;4.28;;
25657;SDS011;13517;59.320;18.042;2023-07-02T01:53:38;8.90;;;4.60;;
25657;SDS011;13517;59.320;18.042;2023-07-02T01:56:04;7.10;;;4.45;;
25657;SDS011;13517;59.320;18.042;2023-07-02T01:58:29;7.22;;;5.13;;
25657;SDS011;13517;59.320;18.042;2023-07-02T02:00:54;5.07;;;3.58;;
25657;SDS011;13517;59.320;18.042;2023-07-02T02:03:20;5.88;;;4.40;;
25657;SDS011;13517;59.320;18.042;2023-07-02T02:05:46;8.05;;;4.40;;
25657;SDS011;13517;59.320;18.042;2023-07-02T02:08:12;8.43;;;4.18;;
25657;SDS011;13517;59.320;18.042;2023-07-02T02:10:37;4.90;;;4.18;;
25657;SDS011;13517;59.320;18.042;2023-07-02T02:13:02;5.45;;;4.30;;
25657;SDS011;13517;59.320;18.042;2023-07-02T02:15:28;7.25;;;3.65;;
25657;SDS011;13517;59.320;18.042;2023-07-02T02:17:53;4.78;;;3.88;;
25657;SDS011;13517;59.320;18.042;2023-07-02T02:20:19;5.35;;;4.13;;
25657;SDS011;13517;59.320;18.042;2023-07-02T02:22:44;5.38;;;4.30;;
25657;SDS011;13517;59.320;18.042;2023-07-02T02:25:10;6.47;;;4.18;;
25657;SDS011;13517;59.320;18.042;2023-07-02T02:27:35;4.28;;;3.63;;
25657;SDS011;13517;59.320;18.042;2023-07-02T02:30:01;4.97;;;3.92;;
25657;SDS011;13517;59.320;18.042;2023-07-02T02:32:26;5.00;;;4.07;;
25657;SDS011;13517;59.320;18.042;2023-07-02T02:34:51;7.97;;;3.80;;
25657;SDS011;13517;59.320;18.042;2023-07-02T02:37:18;6.10;;;3.88;;
25657;SDS011;13517;59.320;18.042;2023-07-02T02:39:43;5.68;;;3.88;;
25657;SDS011;13517;59.320;18.042;2023-07-02T02:42:09;5.80;;;3.92;;
25657;SDS011;13517;59.320;18.042;2023-07-02T02:44:34;5.57;;;3.45;;
25657;SDS011;13517;59.320;18.042;2023-07-02T02:47:00;8.00;;;4.03;;
25657;SDS011;13517;59.320;18.042;2023-07-02T02:49:25;4.88;;;3.63;;
25657;SDS011;13517;59.320;18.042;2023-07-02T02:51:50;7.60;;;3.88;;
25657;SDS011;13517;59.320;18.042;2023-07-02T02:54:16;5.38;;;3.75;;
25657;SDS011;13517;59.320;18.042;2023-07-02T02:56:42;5.65;;;4.07;;
25657;SDS011;13517;59.320;18.042;2023-07-02T02:59:07;4.97;;;3.50;;
25657;SDS011;13517;59.320;18.042;2023-07-02T03:01:33;3.97;;;3.58;;
25657;SDS011;13517;59.320;18.042;2023-07-02T03:03:58;5.18;;;3.92;;
25657;SDS011;13517;59.320;18.042;2023-07-02T03:06:24;6.40;;;4.13;;
25657;SDS011;13517;59.320;18.042;2023-07-02T03:08:50;7.10;;;4.07;;
25657;SDS011;13517;59.320;18.042;2023-07-02T03:11:15;4.95;;;3.80;;
25657;SDS011;13517;59.320;18.042;2023-07-02T03:13:40;5.00;;;4.15;;
25657;SDS011;13517;59.320;18.042;2023-07-02T03:16:06;4.47;;;3.58;;
25657;SDS011;13517;59.320;18.042;2023-07-02T03:18:31;4.15;;;3.70;;
25657;SDS011;13517;59.320;18.042;2023-07-02T03:20:57;6.32;;;3.90;;
25657;SDS011;13517;59.320;18.042;2023-07-02T03:23:23;6.50;;;4.00;;
25657;SDS011;13517;59.320;18.042;2023-07-02T03:25:48;5.28;;;3.70;;
25657;SDS011;13517;59.320;18.042;2023-07-02T03:28:14;5.10;;;3.90;;
25657;SDS011;13517;59.320;18.042;2023-07-02T03:30:39;5.13;;;3.55;;
25657;SDS011;13517;59.320;18.042;2023-07-02T03:33:05;6.43;;;4.43;;
25657;SDS011;13517;59.320;18.042;2023-07-02T03:35:30;4.20;;;3.80;;
25657;SDS011;13517;59.320;18.042;2023-07-02T03:37:56;4.72;;;3.42;;
25657;SDS011;13517;59.320;18.042;2023-07-02T03:40:22;7.68;;;4.13;;
25657;SDS011;13517;59.320;18.042;2023-07-02T03:42:48;10.35;;;3.70;;
25657;SDS011;13517;59.320;18.042;2023-07-02T03:45:13;4.38;;;3.70;;
25657;SDS011;13517;59.320;18.042;2023-07-02T03:47:39;4.80;;;3.63;;
25657;SDS011;13517;59.320;18.042;2023-07-02T03:50:04;7.80;;;3.92;;
25657;SDS011;13517;59.320;18.042;2023-07-02T03:52:30;5.65;;;3.53;;
25657;SDS011;13517;59.320;18.042;2023-07-02T03:54:55;5.72;;;3.90;;
25657;SDS011;13517;59.320;18.042;2023-07-02T03:57:21;5.55;;;3.33;;
25657;SDS011;13517;59.320;18.042;2023-07-02T03:59:46;7.63;;;3.78;;
25657;SDS011;13517;59.320;18.042;2023-07-02T04:02:11;5.75;;;4.05;;
25657;SDS011;13517;59.320;18.042;2023-07-02T04:04:37;4.28;;;3.72;;
25657;SDS011;13517;59.320;18.042;2023-07-02T04:07:02;5.22;;;4.20;;
25657;SDS011;13517;59.320;18.042;2023-07-02T04:09:28;10.90;;;4.95;;
25657;SDS011;13517;59.320;18.042;2023-07-02T04:11:53;4.35;;;3.95;;
25657;SDS011;13517;59.320;18.042;2023-07-02T04:14:18;5.05;;;3.92;;
25657;SDS011;13517;59.320;18.042;2023-07-02T04:16:44;5.50;;;3.97;;
25657;SDS011;13517;59.320;18.042;2023-07-02T04:19:10;8.40;;;4.00;;
25657;SDS011;13517;59.320;18.042;2023-07-02T04:21:36;5.85;;;3.85;;
25657;SDS011;13517;59.320;18.042;2023-07-02T04:24:01;6.57;;;3.78;;
25657;SDS011;13517;59.320;18.042;2023-07-02T04:26:26;7.95;;;3.60;;
25657;SDS011;13517;59.320;18.042;2023-07-02T04:28:53;6.25;;;3.63;;
25657;SDS011;13517;59.320;18.042;2023-07-02T04:31:20;5.18;;;3.63;;
25657;SDS011;13517;59.320;18.042;2023-07-02T04:33:45;4.55;;;3.55;;
25657;SDS011;13517;59.320;18.042;2023-07-02T04:36:11;7.18;;;4.20;;
25657;SDS011;13517;59.320;18.042;2023-07-02T04:38:37;7.22;;;4.00;;
25657;SDS011;13517;59.320;18.042;2023-07-02T04:41:04;4.72;;;3.28;;
25657;SDS011;13517;59.320;18.042;2023-07-02T04:43:33;4.22;;;3.83;;
25657;SDS011;13517;59.320;18.042;2023-07-02T04:45:58;5.25;;;3.50;;
25657;SDS011;13517;59.320;18.042;2023-07-02T04:48:24;5.43;;;3.53;;
25657;SDS011;13517;59.320;18.042;2023-07-02T04:50:50;5.25;;;4.03;;
25657;SDS011;13517;59.320;18.042;2023-07-02T04:53:15;5.82;;;3.90;;
25657;SDS011;13517;59.320;18.042;2023-07-02T04:55:41;5.22;;;3.72;;
25657;SDS011;13517;59.320;18.042;2023-07-02T04:58:07;6.68;;;3.80;;
25657;SDS011;13517;59.320;18.042;2023-07-02T05:00:32;8.93;;;4.80;;
25657;SDS011;13517;59.320;18.042;2023-07-02T05:02:58;6.63;;;3.70;;
25657;SDS011;13517;59.320;18.042;2023-07-02T05:05:23;5.70;;;3.63;;
25657;SDS011;13517;59.320;18.042;2023-07-02T05:07:48;4.03;;;3.33;;
25657;SDS011;13517;59.320;18.042;2023-07-02T05:10:14;5.82;;;3.70;;
25657;SDS011;13517;59.320;18.042;2023-07-02T05:12:39;4.72;;;3.33;;
25657;SDS011;13517;59.320;18.042;2023-07-02T05:15:05;4.65;;;3.20;;
25657;SDS011;13517;59.320;18.042;2023-07-02T05:17:31;3.90;;;3.47;;
25657;SDS011;13517;59.320;18.042;2023-07-02T05:19:59;4.93;;;3.45;;
25657;SDS011;13517;59.320;18.042;2023-07-02T05:22:25;5.10;;;3.85;;
25657;SDS011;13517;59.320;18.042;2023-07-02T05:24:51;5.57;;;3.47;;
25657;SDS011;13517;59.320;18.042;2023-07-02T05:27:16;8.43;;;3.47;;
25657;SDS011;13517;59.320;18.042;2023-07-02T05:29:42;4.78;;;3.55;;
25657;SDS011;13517;59.320;18.042;2023-07-02T05:32:08;6.03;;;3.63;;
25657;SDS011;13517;59.320;18.042;2023-07-02T05:34:33;3.58;;;3.10;;
25657;SDS011;13517;59.320;18.042;2023-07-02T05:36:59;5.72;;;3.17;;
25657;SDS011;13517;59.320;18.042;2023-07-02T05:39:24;3.22;;;2.92;;
25657;SDS011;13517;59.320;18.042;2023-07-02T05:41:50;4.97;;;3.58;;
25657;SDS011;13517;59.320;18.042;2023-07-02T05:44:17;4.75;;;3.17;;
25657;SDS011;13517;59.320;18.042;2023-07-02T05:46:42;4.85;;;2.92;;
25657;SDS011;13517;59.320;18.042;2023-07-02T05:49:08;4.10;;;3.17;;
25657;SDS011;13517;59.320;18.042;2023-07-02T05:51:33;4.80;;;3.08;;
25657;SDS011;13517;59.320;18.042;2023-07-02T05:53:58;3.95;;;3.30;;
25657;SDS011;13517;59.320;18.042;2023-07-02T05:56:24;3.58;;;2.90;;
25657;SDS011;13517;59.320;18.042;2023-07-02T05:58:49;4.05;;;3.03;;
25657;SDS011;13517;59.320;18.042;2023-07-02T06:01:15;4.22;;;3.00;;
25657;SDS011;13517;59.320;18.042;2023-07-02T06:03:40;4.35;;;2.95;;
25657;SDS011;13517;59.320;18.042;2023-07-02T06:06:07;3.63;;;3.05;;
25657;SDS011;13517;59.320;18.042;2023-07-02T06:08:32;4.82;;;3.25;;
25657;SDS011;13517;59.320;18.042;2023-07-02T06:10:58;3.30;;;3.00;;
25657;SDS011;13517;59.320;18.042;2023-07-02T06:13:23;5.40;;;3.40;;
25657;SDS011;13517;59.320;18.042;2023-07-02T06:15:49;5.15;;;2.75;;
25657;SDS011;13517;59.320;18.042;2023-07-02T06:18:14;4.05;;;3.20;;
25657;SDS011;13517;59.320;18.042;2023-07-02T06:20:40;4.20;;;3.38;;
25657;SDS011;13517;59.320;18.042;2023-07-02T06:23:05;3.90;;;3.13;;
25657;SDS011;13517;59.320;18.042;2023-07-02T06:25:32;5.38;;;3.58;;
25657;SDS011;13517;59.320;18.042;2023-07-02T06:27:57;3.72;;;3.10;;
25657;SDS011;13517;59.320;18.042;2023-07-02T06:30:23;4.43;;;2.85;;
25657;SDS011;13517;59.320;18.042;2023-07-02T06:32:49;4.43;;;3.53;;
25657;SDS011;13517;59.320;18.042;2023-07-02T06:35:14;4.22;;;3.50;;
25657;SDS011;13517;59.320;18.042;2023-07-02T06:37:40;3.03;;;2.70;;
25657;SDS011;13517;59.320;18.042;2023-07-02T06:40:05;4.40;;;2.72;;
25657;SDS011;13517;59.320;18.042;2023-07-02T06:42:31;3.97;;;2.55;;
25657;SDS011;13517;59.320;18.042;2023-07-02T06:44:58;3.97;;;2.50;;
25657;SDS011;13517;59.320;18.042;2023-07-02T06:47:23;4.05;;;2.78;;
25657;SDS011;13517;59.320;18.042;2023-07-02T06:49:49;4.07;;;2.65;;
25657;SDS011;13517;59.320;18.042;2023-07-02T06:52:14;2.78;;;2.50;;
25657;SDS011;13517;59.320;18.042;2023-07-02T06:54:39;4.57;;;2.95;;
25657;SDS011;13517;59.320;18.042;2023-07-02T06:57:05;4.88;;;3.17;;
25657;SDS011;13517;59.320;18.042;2023-07-02T06:59:30;6.13;;;2.80;;
25657;SDS011;13517;59.320;18.042;2023-07-02T07:01:56;7.15;;;2.92;;
25657;SDS011;13517;59.320;18.042;2023-07-02T07:04:21;3.45;;;2.95;;
25657;SDS011;13517;59.320;18.042;2023-07-02T07:06:47;3.28;;;2.97;;
25657;SDS011;13517;59.320;18.042;2023-07-02T07:09:12;6.30;;;3.20;;
25657;SDS011;13517;59.320;18.042;2023-07-02T07:11:37;5.13;;;3.10;;
25657;SDS011;13517;59.320;18.042;2023-07-02T07:14:03;5.45;;;3.17;;
25657;SDS011;13517;59.320;18.042;2023-07-02T07:16:28;4.75;;;3.38;;
25657;SDS011;13517;59.320;18.042;2023-07-02T07:18:54;3.97;;;2.80;;
25657;SDS011;13517;59.320;18.042;2023-07-02T07:21:19;5.70;;;3.17;;
25657;SDS011;13517;59.320;18.042;2023-07-02T07:23:45;5.60;;;3.03;;
25657;SDS011;13517;59.320;18.042;2023-07-02T07:26:10;4.30;;;3.00;;
25657;SDS011;13517;59.320;18.042;2023-07-02T07:28:36;4.38;;;3.13;;
25657;SDS011;13517;59.320;18.042;2023-07-02T07:31:02;4.65;;;3.65;;
25657;SDS011;13517;59.320;18.042;2023-07-02T07:33:27;4.78;;;3.70;;
25657;SDS011;13517;59.320;18.042;2023-07-02T07:35:53;5.13;;;3.42;;
25657;SDS011;13517;59.320;18.042;2023-07-02T07:38:18;6.88;;;3.83;;
25657;SDS011;13517;59.320;18.042;2023-07-02T07:40:43;4.03;;;3.63;;
25657;SDS011;13517;59.320;18.042;2023-07-02T07:43:09;5.32;;;3.75;;
25657;SDS011;13517;59.320;18.042;2023-07-02T07:45:34;4.78;;;3.67;;
25657;SDS011;13517;59.320;18.042;2023-07-02T07:48:00;3.83;;;3.22;;
25657;SDS011;13517;59.320;18.042;2023-07-02T07:50:26;4.18;;;3.72;;
25657;SDS011;13517;59.320;18.042;2023-07-02T07:52:51;6.70;;;3.30;;
25657;SDS011;13517;59.320;18.042;2023-07-02T07:55:17;5.38;;;3.58;;
25657;SDS011;13517;59.320;18.042;2023-07-02T07:57:42;7.57;;;3.97;;
25657;SDS011;13517;59.320;18.042;2023-07-02T08:00:08;5.78;;;3.92;;
25657;SDS011;13517;59.320;18.042;2023-07-02T08:02:37;3.63;;;3.17;;
25657;SDS011;13517;59.320;18.042;2023-07-02T08:05:02;7.35;;;4.30;;
25657;SDS011;13517;59.320;18.042;2023-07-02T08:07:30;8.48;;;5.13;;
25657;SDS011;13517;59.320;18.042;2023-07-02T08:09:56;12.40;;;5.82;;
25657;SDS011;13517;59.320;18.042;2023-07-02T08:12:21;11.27;;;7.43;;
25657;SDS011;13517;59.320;18.042;2023-07-02T08:14:47;9.32;;;7.60;;
25657;SDS011;13517;59.320;18.042;2023-07-02T08:17:12;13.85;;;8.75;;
25657;SDS011;13517;59.320;18.042;2023-07-02T08:19:38;16.55;;;8.32;;
25657;SDS011;13517;59.320;18.042;2023-07-02T08:22:03;11.10;;;8.50;;
25657;SDS011;13517;59.320;18.042;2023-07-02T08:24:29;10.10;;;8.00;;
25657;SDS011;13517;59.320;18.042;2023-07-02T08:26:56;15.13;;;8.48;;
25657;SDS011;13517;59.320;18.042;2023-07-02T08:29:21;14.43;;;7.80;;
25657;SDS011;13517;59.320;18.042;2023-07-02T08:31:46;14.25;;;8.20;;
25657;SDS011;13517;59.320;18.042;2023-07-02T08:34:12;14.88;;;7.80;;
25657;SDS011;13517;59.320;18.042;2023-07-02T08:36:37;9.60;;;6.97;;
25657;SDS011;13517;59.320;18.042;2023-07-02T08:39:03;10.07;;;8.02;;
25657;SDS011;13517;59.320;18.042;2023-07-02T08:41:29;9.77;;;8.40;;
25657;SDS011;13517;59.320;18.042;2023-07-02T08:43:56;11.27;;;8.65;;
25657;SDS011;13517;59.320;18.042;2023-07-02T08:46:23;11.55;;;8.70;;
25657;SDS011;13517;59.320;18.042;2023-07-02T08:48:49;12.32;;;9.57;;
25657;SDS011;13517;59.320;18.042;2023-07-02T08:51:14;13.40;;;10.38;;
25657;SDS011;13517;59.320;18.042;2023-07-02T08:53:40;23.00;;;13.00;;
25657;SDS011;13517;59.320;18.042;2023-07-02T08:56:05;27.00;;;15.15;;
25657;SDS011;13517;59.320;18.042;2023-07-02T08:58:31;20.20;;;13.02;;
25657;SDS011;13517;59.320;18.042;2023-07-02T09:03:38;15.77;;;11.45;;
25657;SDS011;13517;59.320;18.042;2023-07-02T09:06:05;11.95;;;10.10;;
25657;SDS011;13517;59.320;18.042;2023-07-02T09:08:31;15.75;;;13.13;;
25657;SDS011;13517;59.320;18.042;2023-07-02T09:16:31;13.98;;;9.95;;
25657;SDS011;13517;59.320;18.042;2023-07-02T09:19:02;12.30;;;9.60;;
25657;SDS011;13517;59.320;18.042;2023-07-02T09:21:43;11.60;;;10.40;;
25657;SDS011;13517;59.320;18.042;2023-07-02T09:24:15;13.75;;;12.13;;
25657;SDS011;13517;59.320;18.042;2023-07-02T09:26:43;11.05;;;9.43;;
25657;SDS011;13517;59.320;18.042;2023-07-02T09:29:10;11.27;;;8.90;;
25657;SDS011;13517;59.320;18.042;2023-07-02T09:31:45;12.15;;;8.73;;
25657;SDS011;13517;59.320;18.042;2023-07-02T09:34:11;9.35;;;7.85;;
25657;SDS011;13517;59.320;18.042;2023-07-02T09:36:38;9.02;;;8.13;;
25657;SDS011;13517;59.320;18.042;2023-07-02T09:39:07;10.13;;;7.63;;
25657;SDS011;13517;59.320;18.042;2023-07-02T09:41:36;8.07;;;6.53;;
25657;SDS011;13517;59.320;18.042;2023-07-02T09:44:02;10.20;;;6.93;;
25657;SDS011;13517;59.320;18.042;2023-07-02T09:46:28;8.80;;;6.97;;
25657;SDS011;13517;59.320;18.042;2023-07-02T09:48:56;8.52;;;6.45;;
25657;SDS011;13517;59.320;18.042;2023-07-02T09:51:23;7.35;;;5.43;;
25657;SDS011;13517;59.320;18.042;2023-07-02T09:53:49;6.95;;;6.18;;
25657;SDS011;13517;59.320;18.042;2023-07-02T09:56:15;7.78;;;6.82;;
25657;SDS011;13517;59.320;18.042;2023-07-02T09:58:41;9.95;;;6.75;;
25657;SDS011;13517;59.320;18.042;2023-07-02T10:01:09;7.22;;;6.53;;
25657;SDS011;13517;59.320;18.042;2023-07-02T10:03:35;11.32;;;6.82;;
25657;SDS011;13517;59.320;18.042;2023-07-02T10:06:06;10.02;;;7.43;;
25657;SDS011;13517;59.320;18.042;2023-07-02T10:08:32;8.90;;;7.32;;
25657;SDS011;13517;59.320;18.042;2023-07-02T10:11:13;8.57;;;7.65;;
25657;SDS011;13517;59.320;18.042;2023-07-02T10:13:41;8.10;;;6.80;;
25657;SDS011;13517;59.320;18.042;2023-07-02T10:16:07;10.45;;;7.30;;
25657;SDS011;13517;59.320;18.042;2023-07-02T10:18:32;8.75;;;7.90;;
25657;SDS011;13517;59.320;18.042;2023-07-02T10:20:58;11.18;;;8.73;;
25657;SDS011;13517;59.320;18.042;2023-07-02T10:23:33;22.63;;;10.50;;
25657;SDS011;13517;59.320;18.042;2023-07-02T10:26:15;13.48;;;9.80;;
25657;SDS011;13517;59.320;18.042;2023-07-02T10:28:42;16.77;;;12.63;;
25657;SDS011;13517;59.320;18.042;2023-07-02T10:31:26;25.27;;;12.77;;
25657;SDS011;13517;59.320;18.042;2023-07-02T10:33:51;15.52;;;11.73;;
25657;SDS011;13517;59.320;18.042;2023-07-02T10:36:17;29.27;;;16.25;;
25657;SDS011;13517;59.320;18.042;2023-07-02T10:38:44;24.63;;;12.45;;
25657;SDS011;13517;59.320;18.042;2023-07-02T10:41:09;42.17;;;19.98;;
25657;SDS011;13517;59.320;18.042;2023-07-02T10:43:35;27.92;;;15.82;;
25657;SDS011;13517;59.320;18.042;2023-07-02T10:46:00;19.67;;;13.90;;
25657;SDS011;13517;59.320;18.042;2023-07-02T10:48:27;60.67;;;20.73;;
25657;SDS011;13517;59.320;18.042;2023-07-02T10:50:52;29.35;;;14.27;;
25657;SDS011;13517;59.320;18.042;2023-07-02T10:53:19;31.65;;;16.48;;
25657;SDS011;13517;59.320;18.042;2023-07-02T10:55:45;23.33;;;14.38;;
25657;SDS011;13517;59.320;18.042;2023-07-02T10:58:18;25.85;;;16.70;;
25657;SDS011;13517;59.320;18.042;2023-07-02T11:00:47;23.65;;;15.95;;
25657;SDS011;13517;59.320;18.042;2023-07-02T11:03:21;24.60;;;16.42;;
25657;SDS011;13517;59.320;18.042;2023-07-02T11:05:48;23.92;;;16.98;;
25657;SDS011;13517;59.320;18.042;2023-07-02T11:08:14;14.23;;;11.52;;
25657;SDS011;13517;59.320;18.042;2023-07-02T11:10:39;11.48;;;10.27;;
25657;SDS011;13517;59.320;18.042;2023-07-02T11:13:17;13.52;;;11.07;;
25657;SDS011;13517;59.320;18.042;2023-07-02T11:15:44;14.18;;;12.40;;
25657;SDS011;13517;59.320;18.042;2023-07-02T11:18:14;12.95;;;11.60;;
25657;SDS011;13517;59.320;18.042;2023-07-02T11:20:41;18.65;;;12.70;;
25657;SDS011;13517;59.320;18.042;2023-07-02T11:23:23;14.23;;;11.90;;
25657;SDS011;13517;59.320;18.042;2023-07-02T11:25:59;39.20;;;26.60;;
25657;SDS011;13517;59.320;18.042;2023-07-02T11:28:28;15.52;;;11.88;;
25657;SDS011;13517;59.320;18.042;2023-07-02T11:30:54;18.13;;;11.82;;
25657;SDS011;13517;59.320;18.042;2023-07-02T11:33:31;17.35;;;12.60;;
25657;SDS011;13517;59.320;18.042;2023-07-02T11:36:04;14.35;;;10.18;;
25657;SDS011;13517;59.320;18.042;2023-07-02T11:38:30;18.42;;;9.15;;
25657;SDS011;13517;59.320;18.042;2023-07-02T11:40:56;26.98;;;10.45;;
25657;SDS011;13517;59.320;18.042;2023-07-02T11:43:21;23.85;;;12.95;;
25657;SDS011;13517;59.320;18.042;2023-07-02T11:45:47;27.98;;;10.70;;
25657;SDS011;13517;59.320;18.042;2023-07-02T11:48:12;20.33;;;12.32;;
25657;SDS011;13517;59.320;18.042;2023-07-02T11:50:38;22.85;;;10.63;;
25657;SDS011;13517;59.320;18.042;2023-07-02T11:53:03;17.88;;;11.85;;
25657;SDS011;13517;59.320;18.042;2023-07-02T11:55:29;22.83;;;13.65;;
25657;SDS011;13517;59.320;18.042;2023-07-02T11:57:54;24.52;;;11.88;;
25657;SDS011;13517;59.320;18.042;2023-07-02T12:00:19;17.65;;;11.10;;
25657;SDS011;13517;59.320;18.042;2023-07-02T12:02:45;26.58;;;13.82;;
25657;SDS011;13517;59.320;18.042;2023-07-02T12:05:10;21.48;;;13.60;;
25657;SDS011;13517;59.320;18.042;2023-07-02T12:07:36;17.48;;;12.70;;
25657;SDS011;13517;59.320;18.042;2023-07-02T12:10:01;19.20;;;10.85;;
25657;SDS011;13517;59.320;18.042;2023-07-02T12:12:27;20.25;;;12.80;;
25657;SDS011;13517;59.320;18.042;2023-07-02T12:14:52;18.45;;;13.07;;
25657;SDS011;13517;59.320;18.042;2023-07-02T12:17:17;14.70;;;10.43;;
25657;SDS011;13517;59.320;18.042;2023-07-02T12:19:43;12.77;;;10.10;;
25657;SDS011;13517;59.320;18.042;2023-07-02T12:22:08;12.10;;;10.20;;
25657;SDS011;13517;59.320;18.042;2023-07-02T12:24:34;14.55;;;11.25;;
25657;SDS011;13517;59.320;18.042;2023-07-02T12:27:00;20.60;;;14.10;;
25657;SDS011;13517;59.320;18.042;2023-07-02T12:29:25;13.40;;;10.98;;
25657;SDS011;13517;59.320;18.042;2023-07-02T12:31:50;13.85;;;9.73;;
25657;SDS011;13517;59.320;18.042;2023-07-02T12:34:16;12.80;;;10.32;;
25657;SDS011;13517;59.320;18.042;2023-07-02T12:36:41;11.27;;;9.23;;
25657;SDS011;13517;59.320;18.042;2023-07-02T12:39:07;10.85;;;9.25;;
25657;SDS011;13517;59.320;18.042;2023-07-02T12:41:35;10.38;;;8.57;;
25657;SDS011;13517;59.320;18.042;2023-07-02T12:44:00;12.57;;;9.25;;
25657;SDS011;13517;59.320;18.042;2023-07-02T12:46:26;10.93;;;8.98;;
25657;SDS011;13517;59.320;18.042;2023-07-02T12:48:51;9.95;;;8.55;;
25657;SDS011;13517;59.320;18.042;2023-07-02T12:51:17;9.60;;;8.18;;
25657;SDS011;13517;59.320;18.042;2023-07-02T12:53:42;8.45;;;7.20;;
25657;SDS011;13517;59.320;18.042;2023-07-02T12:56:08;11.77;;;9.13;;
25657;SDS011;13517;59.320;18.042;2023-07-02T12:58:33;12.35;;;9.73;;
25657;SDS011;13517;59.320;18.042;2023-07-02T13:00:59;10.27;;;8.85;;
25657;SDS011;13517;59.320;18.042;2023-07-02T13:03:25;12.80;;;8.80;;
25657;SDS011;13517;59.320;18.042;2023-07-02T13:05:50;15.13;;;9.90;;
25657;SDS011;13517;59.320;18.042;2023-07-02T13:08:23;12.55;;;9.30;;
25657;SDS011;13517;59.320;18.042;2023-07-02T13:10:49;25.43;;;10.90;;
25657;SDS011;13517;59.320;18.042;2023-07-02T13:13:14;14.38;;;7.80;;
25657;SDS011;13517;59.320;18.042;2023-07-02T13:15:40;8.95;;;7.18;;
25657;SDS011;13517;59.320;18.042;2023-07-02T13:18:05;8.77;;;7.97;;
25657;SDS011;13517;59.320;18.042;2023-07-02T13:20:30;12.50;;;8.60;;
25657;SDS011;13517;59.320;18.042;2023-07-02T13:22:56;10.05;;;8.43;;
25657;SDS011;13517;59.320;18.042;2023-07-02T13:25:23;9.93;;;8.40;;
25657;SDS011;13517;59.320;18.042;2023-07-02T13:27:48;10.07;;;8.05;;
25657;SDS011;13517;59.320;18.042;2023-07-02T13:30:14;11.55;;;8.50;;
25657;SDS011;13517;59.320;18.042;2023-07-02T13:32:39;8.60;;;7.53;;
25657;SDS011;13517;59.320;18.042;2023-07-02T13:35:05;11.23;;;7.07;;
25657;SDS011;13517;59.320;18.042;2023-07-02T13:37:30;9.02;;;7.57;;
25657;SDS011;13517;59.320;18.042;2023-07-02T13:39:56;9.73;;;6.95;;
25657;SDS011;13517;59.320;18.042;2023-07-02T13:42:21;9.45;;;8.20;;
25657;SDS011;13517;59.320;18.042;2023-07-02T13:44:47;10.75;;;8.60;;
25657;SDS011;13517;59.320;18.042;2023-07-02T13:47:12;9.95;;;8.48;;
25657;SDS011;13517;59.320;18.042;2023-07-02T13:49:38;11.27;;;8.90;;
25657;SDS011;13517;59.320;18.042;2023-07-02T13:52:03;8.85;;;7.93;;
25657;SDS011;13517;59.320;18.042;2023-07-02T13:54:29;10.45;;;8.38;;
25657;SDS011;13517;59.320;18.042;2023-07-02T13:56:55;9.25;;;8.30;;
25657;SDS011;13517;59.320;18.042;2023-07-02T13:59:21;9.05;;;7.00;;
25657;SDS011;13517;59.320;18.042;2023-07-02T14:01:47;12.48;;;9.98;;
25657;SDS011;13517;59.320;18.042;2023-07-02T14:04:12;11.02;;;7.90;;
25657;SDS011;13517;59.320;18.042;2023-07-02T14:06:39;10.68;;;9.07;;
25657;SDS011;13517;59.320;18.042;2023-07-02T14:09:05;10.02;;;8.27;;
25657;SDS011;13517;59.320;18.042;2023-07-02T14:11:31;12.48;;;9.73;;
25657;SDS011;13517;59.320;18.042;2023-07-02T14:13:57;17.05;;;10.55;;
25657;SDS011;13517;59.320;18.042;2023-07-02T14:16:22;12.30;;;9.35;;
25657;SDS011;13517;59.320;18.042;2023-07-02T14:18:49;17.48;;;12.73;;
25657;SDS011;13517;59.320;18.042;2023-07-02T14:21:14;16.88;;;11.80;;
25657;SDS011;13517;59.320;18.042;2023-07-02T14:23:40;20.95;;;13.20;;
25657;SDS011;13517;59.320;18.042;2023-07-02T14:26:06;13.70;;;8.57;;
25657;SDS011;13517;59.320;18.042;2023-07-02T14:28:32;16.10;;;10.38;;
25657;SDS011;13517;59.320;18.042;2023-07-02T14:30:58;17.17;;;10.60;;
25657;SDS011;13517;59.320;18.042;2023-07-02T14:33:25;21.90;;;12.88;;